Time;durP1;ratioP1;P1;durP2;ratioP2;P2;SDS_P1;SDS_P2;PMS_P1;PMS_P2;Temp;Humidity;BMP_temperature;BMP_pressure;BME280_temperature;BME280_humidity;BME280_pressure;Samples;Min_cycle;Max_cycle;Signal;HPM_P1;HPM_P2
2022/10/26 00:00:31;;;;;;;4.03;2.45;;;;;;;;;;6244350;22;20034;-85
2022/10/26 00:02:56;;;;;;;4.38;2.50;;;;;;;;;;6268684;22;20011;-85
2022/10/26 00:05:22;;;;;;;4.88;2.35;;;;;;;;;;6244068;22;20006;-85
2022/10/26 00:07:48;;;;;;;4.05;2.60;;;;;;;;;;6269891;22;20069;-85
2022/10/26 00:10:14;;;;;;;4.75;2.50;;;;;;;;;;6245590;22;19999;-85
2022/10/26 00:12:39;;;;;;;5.28;2.63;;;;;;;;;;6269487;22;20015;-85
2022/10/26 00:15:05;;;;;;;5.45;2.40;;;;;;;;;;6247109;22;19996;-85
2022/10/26 00:17:31;;;;;;;;;;;;;;;;;;6220401;22;20007;-86
2022/10/26 00:19:56;;;;;;;7.50;2.30;;;;;;;;;;6244702;22;19910;-85
2022/10/26 00:22:22;;;;;;;5.22;2.30;;;;;;;;;;6242328;22;20075;-84
2022/10/26 00:24:47;;;;;;;6.68;3.05;;;;;;;;;;6263902;22;20027;-83
2022/10/26 00:27:13;;;;;;;5.30;2.40;;;;;;;;;;6213476;22;20015;-84
2022/10/26 00:29:39;;;;;;;5.78;2.63;;;;;;;;;;6266082;22;20007;-84
2022/10/26 00:32:05;;;;;;;4.82;2.70;;;;;;;;;;6263514;22;20386;-84
2022/10/26 00:34:31;;;;;;;4.25;2.67;;;;;;;;;;6239025;22;19999;-84
2022/10/26 00:36:56;;;;;;;5.47;3.05;;;;;;;;;;6265119;22;20134;-83
2022/10/26 00:39:22;;;;;;;5.53;2.90;;;;;;;;;;6264440;22;20015;-84
2022/10/26 00:41:48;;;;;;;4.70;2.70;;;;;;;;;;6215059;22;20008;-84
2022/10/26 00:44:32;;;;;;;7.20;3.28;;;;;;;;;;6264766;22;20000;-84
2022/10/26 00:46:57;;;;;;;6.50;3.20;;;;;;;;;;6263892;22;20019;-85
2022/10/26 00:49:23;;;;;;;7.57;3.67;;;;;;;;;;6263872;22;20003;-83
2022/10/26 00:51:49;;;;;;;5.10;3.30;;;;;;;;;;6290930;22;20016;-84
2022/10/26 00:54:17;;;;;;;5.43;3.35;;;;;;;;;;6240829;22;20075;-84
2022/10/26 00:56:43;;;;;;;6.93;3.55;;;;;;;;;;6267575;22;20007;-85
2022/10/26 00:59:08;;;;;;;;;;;;;;;;;;6245010;22;20057;-86
2022/10/26 01:01:34;;;;;;;8.35;3.30;;;;;;;;;;6295386;22;19911;-86
2022/10/26 01:04:00;;;;;;;6.57;3.53;;;;;;;;;;6244113;22;20075;-86
2022/10/26 01:06:27;;;;;;;6.18;3.67;;;;;;;;;;6267130;22;20016;-84
2022/10/26 01:08:53;;;;;;;7.22;3.80;;;;;;;;;;6243099;22;20030;-84
2022/10/26 01:11:18;;;;;;;7.13;3.70;;;;;;;;;;6241225;22;20161;-84
2022/10/26 01:13:45;;;;;;;7.85;3.78;;;;;;;;;;6268494;22;20007;-85
2022/10/26 01:16:13;;;;;;;10.05;3.92;;;;;;;;;;6244864;22;20019;-85
2022/10/26 01:18:40;;;;;;;8.63;4.38;;;;;;;;;;6269848;22;20000;-84
2022/10/26 01:21:09;;;;;;;7.00;4.00;;;;;;;;;;6244421;22;20059;-84
2022/10/26 01:23:38;;;;;;;8.38;4.20;;;;;;;;;;6268292;22;20514;-85
2022/10/26 01:26:13;;;;;;;6.20;3.90;;;;;;;;;;6243353;22;20046;-84
2022/10/26 01:28:44;;;;;;;10.25;4.35;;;;;;;;;;6294041;22;20080;-85
2022/10/26 01:31:10;;;;;;;6.30;4.05;;;;;;;;;;6268570;22;20082;-85
2022/10/26 01:33:44;;;;;;;6.93;4.22;;;;;;;;;;6267282;22;20007;-85
2022/10/26 01:36:11;;;;;;;11.32;5.50;;;;;;;;;;6266942;22;20007;-84
2022/10/26 01:38:45;;;;;;;9.00;4.47;;;;;;;;;;6267569;22;20016;-84
2022/10/26 01:41:12;;;;;;;7.40;4.25;;;;;;;;;;6243247;22;20098;-84
2022/10/26 01:43:45;;;;;;;7.32;4.40;;;;;;;;;;6267459;22;20091;-85
2022/10/26 01:46:10;;;;;;;8.52;4.70;;;;;;;;;;6243140;22;20012;-84
2022/10/26 01:48:36;;;;;;;7.03;4.53;;;;;;;;;;6267290;22;20064;-84
2022/10/26 01:51:02;;;;;;;6.63;4.40;;;;;;;;;;6266943;22;20011;-84
2022/10/26 01:53:27;;;;;;;8.07;4.47;;;;;;;;;;6240699;22;20034;-84
2022/10/26 01:55:53;;;;;;;8.70;4.82;;;;;;;;;;6267080;22;20026;-84
2022/10/26 01:58:37;;;;;;;8.40;4.70;;;;;;;;;;6242787;22;19999;-84
2022/10/26 02:01:06;;;;;;;7.50;4.30;;;;;;;;;;6268132;22;20390;-84
2022/10/26 02:03:53;;;;;;;8.00;4.50;;;;;;;;;;6293762;22;20027;-84
2022/10/26 02:06:45;;;;;;;9.07;5.43;;;;;;;;;;6267673;22;20023;-85
2022/10/26 02:09:11;;;;;;;9.50;5.05;;;;;;;;;;6262445;22;20063;-84
2022/10/26 02:11:47;;;;;;;9.77;4.13;;;;;;;;;;6268122;22;20010;-85
2022/10/26 02:14:22;;;;;;;8.50;4.55;;;;;;;;;;6242961;22;20019;-85
2022/10/26 02:16:57;;;;;;;9.05;5.20;;;;;;;;;;6293621;22;20007;-85
2022/10/26 02:19:28;;;;;;;8.00;4.93;;;;;;;;;;6294179;22;20008;-86
2022/10/26 02:22:14;;;;;;;9.30;5.35;;;;;;;;;;6293716;22;20059;-84
2022/10/26 02:24:40;;;;;;;12.40;5.38;;;;;;;;;;6266884;22;20111;-84
2022/10/26 02:27:07;;;;;;;8.40;5.55;;;;;;;;;;6217500;22;20026;-85
2022/10/26 02:29:33;;;;;;;9.55;5.38;;;;;;;;;;6216125;22;20011;-85
2022/10/26 02:31:58;;;;;;;10.27;6.40;;;;;;;;;;6265050;22;20008;-83
2022/10/26 02:34:24;;;;;;;15.68;6.32;;;;;;;;;;6268441;22;20072;-85
2022/10/26 02:36:50;;;;;;;11.35;5.57;;;;;;;;;;6271366;22;20056;-84
2022/10/26 02:39:18;;;;;;;8.82;5.57;;;;;;;;;;6255588;23;20016;-85
2022/10/26 02:41:44;;;;;;;10.95;5.63;;;;;;;;;;6214357;23;20019;-84
2022/10/26 02:44:16;;;;;;;11.73;5.78;;;;;;;;;;6188169;23;20012;-85
2022/10/26 02:46:42;;;;;;;8.55;5.13;;;;;;;;;;6239621;23;20011;-84
2022/10/26 02:49:07;;;;;;;14.38;5.75;;;;;;;;;;6241143;23;20006;-85
2022/10/26 02:51:33;;;;;;;10.23;5.43;;;;;;;;;;6212109;23;20378;-83
2022/10/26 02:54:18;;;;;;;9.65;5.57;;;;;;;;;;6261398;23;20444;-83
2022/10/26 02:56:46;;;;;;;8.85;5.60;;;;;;;;;;6237447;23;20363;-84
2022/10/26 02:59:12;;;;;;;11.82;6.22;;;;;;;;;;6237365;23;20007;-85
2022/10/26 03:01:37;;;;;;;14.38;7.40;;;;;;;;;;6210651;23;20012;-84
2022/10/26 03:04:03;;;;;;;10.52;6.05;;;;;;;;;;6236183;23;19996;-85
2022/10/26 03:06:29;;;;;;;;;;;;;;;;;;6236200;23;20012;-84
2022/10/26 03:08:55;;;;;;;12.18;6.10;;;;;;;;;;6262336;23;20244;-86
2022/10/26 03:11:20;;;;;;;9.60;5.88;;;;;;;;;;6236867;23;20072;-85
2022/10/26 03:13:46;;;;;;;10.07;6.63;;;;;;;;;;6236580;23;20451;-85
2022/10/26 03:16:12;;;;;;;12.48;7.10;;;;;;;;;;6212437;23;20008;-83
2022/10/26 03:18:37;;;;;;;11.57;6.72;;;;;;;;;;6236744;23;20003;-84
2022/10/26 03:21:03;;;;;;;12.05;7.25;;;;;;;;;;6237459;23;20062;-84
2022/10/26 03:23:29;;;;;;;12.77;6.90;;;;;;;;;;6213386;23;20008;-84
2022/10/26 03:25:58;;;;;;;13.25;8.43;;;;;;;;;;6237429;23;20069;-85
2022/10/26 03:28:23;;;;;;;17.98;10.07;;;;;;;;;;6235773;23;20007;-84
2022/10/26 03:30:49;;;;;;;11.93;7.85;;;;;;;;;;6288498;22;20495;-84
2022/10/26 03:33:14;;;;;;;10.93;7.13;;;;;;;;;;6211327;23;20004;-84
2022/10/26 03:35:40;;;;;;;12.10;6.80;;;;;;;;;;6235023;23;20012;-83
2022/10/26 03:38:05;;;;;;;12.38;7.32;;;;;;;;;;6235758;23;20101;-84
2022/10/26 03:40:31;;;;;;;12.55;7.07;;;;;;;;;;6291273;22;20336;-84
2022/10/26 03:42:56;;;;;;;14.20;7.72;;;;;;;;;;6265181;22;20012;-84
2022/10/26 03:45:22;;;;;;;13.00;7.20;;;;;;;;;;6267057;22;20034;-83
2022/10/26 03:47:48;;;;;;;10.93;7.07;;;;;;;;;;6242244;22;19999;-84
2022/10/26 03:50:15;;;;;;;13.23;7.40;;;;;;;;;;6215011;22;20074;-84
2022/10/26 03:52:41;;;;;;;13.35;8.15;;;;;;;;;;6240269;22;20010;-84
2022/10/26 03:55:07;;;;;;;15.85;7.53;;;;;;;;;;6265408;22;20011;-84
2022/10/26 03:57:32;;;;;;;16.05;7.85;;;;;;;;;;6241662;22;19999;-84
2022/10/26 03:59:58;;;;;;;13.23;7.80;;;;;;;;;;6241143;22;20008;-86
2022/10/26 04:02:23;;;;;;;11.15;7.43;;;;;;;;;;6240967;22;19996;-85
2022/10/26 04:04:49;;;;;;;15.45;7.70;;;;;;;;;;6243074;22;20041;-83
2022/10/26 04:07:15;;;;;;;13.25;6.72;;;;;;;;;;6268247;22;20015;-83
2022/10/26 04:09:40;;;;;;;14.82;8.43;;;;;;;;;;6243222;22;20015;-84
2022/10/26 04:12:06;;;;;;;12.57;7.40;;;;;;;;;;6295298;22;20024;-85
2022/10/26 04:14:32;;;;;;;14.25;7.85;;;;;;;;;;6247018;22;20011;-86
2022/10/26 04:16:58;;;;;;;19.58;7.78;;;;;;;;;;6299950;22;19996;-85
2022/10/26 04:19:28;;;;;;;11.30;7.75;;;;;;;;;;6298112;22;20003;-84
2022/10/26 04:21:54;;;;;;;;;;;;;;;;;;6270910;22;19995;-85
2022/10/26 04:24:20;;;;;;;17.27;7.55;;;;;;;;;;6271052;22;19922;-87
2022/10/26 04:26:46;;;;;;;14.90;8.45;;;;;;;;;;6296933;22;20090;-84
2022/10/26 04:29:12;;;;;;;17.80;9.05;;;;;;;;;;6243595;22;20008;-85
2022/10/26 04:31:38;;;;;;;15.73;8.07;;;;;;;;;;6268289;22;20010;-85
2022/10/26 04:34:03;;;;;;;13.93;8.65;;;;;;;;;;6267400;22;20011;-84
2022/10/26 04:36:29;;;;;;;19.15;8.43;;;;;;;;;;6270106;22;19980;-86
2022/10/26 04:38:55;;;;;;;;;;;;;;;;;;6273816;22;20026;-84
2022/10/26 04:41:20;;;;;;;13.75;7.97;;;;;;;;;;6247432;22;19903;-85
2022/10/26 04:43:46;;;;;;;17.08;8.13;;;;;;;;;;6273857;22;19999;-82
2022/10/26 04:46:13;;;;;;;15.40;8.30;;;;;;;;;;6272908;22;20004;-84
2022/10/26 04:48:39;;;;;;;19.58;9.30;;;;;;;;;;6273817;22;20035;-84
2022/10/26 04:51:04;;;;;;;16.45;8.73;;;;;;;;;;6271381;22;20029;-83
2022/10/26 04:53:30;;;;;;;15.85;8.75;;;;;;;;;;6247586;22;20015;-84
2022/10/26 04:55:59;;;;;;;15.48;8.25;;;;;;;;;;6272070;22;20003;-84
2022/10/26 04:58:26;;;;;;;17.10;8.50;;;;;;;;;;6271046;22;19983;-82
2022/10/26 05:00:54;;;;;;;17.67;8.73;;;;;;;;;;6250192;22;20007;-83
2022/10/26 05:03:19;;;;;;;15.52;8.48;;;;;;;;;;6274132;22;20063;-83
2022/10/26 05:05:47;;;;;;;21.33;9.68;;;;;;;;;;6272420;22;20000;-84
2022/10/26 05:08:30;;;;;;;18.75;10.40;;;;;;;;;;6301595;22;20026;-85
2022/10/26 05:11:00;;;;;;;19.05;9.63;;;;;;;;;;6277140;22;20015;-84
2022/10/26 05:13:31;;;;;;;22.88;10.93;;;;;;;;;;6278112;22;20019;-85
2022/10/26 05:15:58;;;;;;;20.13;8.23;;;;;;;;;;6276100;22;20020;-83
2022/10/26 05:23:40;;;;;;;15.20;8.48;;;;;;;;;;6330057;22;20034;-83
2022/10/26 05:28:40;;;;;;;12.88;7.65;;;;;;;;;;6328566;22;20023;-83
2022/10/26 05:31:06;;;;;;;14.65;8.57;;;;;;;;;;6276834;22;19987;-84
2022/10/26 05:33:32;;;;;;;14.13;8.82;;;;;;;;;;6276055;22;20085;-84
2022/10/26 05:35:57;;;;;;;17.17;8.90;;;;;;;;;;6250907;22;20018;-84
2022/10/26 05:38:23;;;;;;;21.52;10.23;;;;;;;;;;6276500;22;20006;-83
2022/10/26 05:40:49;;;;;;;16.92;9.35;;;;;;;;;;6278151;22;20011;-84
2022/10/26 05:43:16;;;;;;;18.52;10.77;;;;;;;;;;6277997;22;19999;-84
2022/10/26 05:45:41;;;;;;;16.95;9.55;;;;;;;;;;6277123;22;20086;-83
2022/10/26 05:48:09;;;;;;;19.83;8.82;;;;;;;;;;6303000;22;20068;-84
2022/10/26 05:50:35;;;;;;;21.05;10.95;;;;;;;;;;6303760;22;20011;-83
2022/10/26 05:53:00;;;;;;;16.90;8.73;;;;;;;;;;6251224;22;20010;-84
2022/10/26 05:55:27;;;;;;;17.08;9.10;;;;;;;;;;6278808;22;20032;-83
2022/10/26 05:57:54;;;;;;;14.93;8.40;;;;;;;;;;6304131;22;19999;-84
2022/10/26 06:00:21;;;;;;;20.77;10.48;;;;;;;;;;6251012;22;20015;-85
2022/10/26 06:03:07;;;;;;;16.98;9.52;;;;;;;;;;6277413;22;20003;-83
2022/10/26 06:05:34;;;;;;;25.48;13.45;;;;;;;;;;6304217;22;20038;-84
2022/10/26 06:08:00;;;;;;;17.08;9.02;;;;;;;;;;6278376;22;20010;-85
2022/10/26 06:10:26;;;;;;;18.83;9.07;;;;;;;;;;6279864;22;20075;-84
2022/10/26 06:12:52;;;;;;;21.95;9.85;;;;;;;;;;6252592;22;20007;-84
2022/10/26 06:15:20;;;;;;;19.20;9.55;;;;;;;;;;6305594;22;20044;-85
2022/10/26 06:23:11;;;;;;;22.67;9.45;;;;;;;;;;6358729;22;20026;-83
2022/10/26 06:25:50;;;;;;;16.13;9.23;;;;;;;;;;6331416;22;20027;-83
2022/10/26 06:39:16;;;;;;;14.95;8.35;;;;;;;;;;6360254;22;20009;-84
2022/10/26 06:41:42;;;;;;;15.77;9.60;;;;;;;;;;6310908;22;20003;-84
2022/10/26 06:44:09;;;;;;;17.15;9.10;;;;;;;;;;6312143;22;20006;-85
2022/10/26 06:47:01;;;;;;;20.63;9.32;;;;;;;;;;6286418;22;20066;-83
2022/10/26 06:49:35;;;;;;;18.58;8.90;;;;;;;;;;6334167;22;20071;-84
2022/10/26 06:52:02;;;;;;;16.10;8.95;;;;;;;;;;6312109;22;20003;-83
2022/10/26 06:54:30;;;;;;;16.80;8.60;;;;;;;;;;6309835;22;20014;-85
2022/10/26 06:56:56;;;;;;;15.32;9.05;;;;;;;;;;6308617;22;19999;-84
2022/10/26 06:59:36;;;;;;;18.63;10.48;;;;;;;;;;6284837;22;20003;-84
2022/10/26 07:02:02;;;;;;;17.13;9.82;;;;;;;;;;6308284;22;19999;-84
2022/10/26 07:04:28;;;;;;;17.95;9.90;;;;;;;;;;6286284;22;19999;-84
2022/10/26 07:06:55;;;;;;;18.90;9.52;;;;;;;;;;6284924;22;20011;-86
2022/10/26 07:09:21;;;;;;;16.58;9.18;;;;;;;;;;6312707;22;20002;-83
2022/10/26 07:11:47;;;;;;;15.13;7.78;;;;;;;;;;6313018;22;20017;-84
2022/10/26 07:19:27;;;;;;;17.80;8.75;;;;;;;;;;6333826;22;20000;-86
2022/10/26 07:21:56;;;;;;;18.67;8.48;;;;;;;;;;6283265;22;20021;-86
2022/10/26 07:24:23;;;;;;;18.77;9.38;;;;;;;;;;6306966;22;20027;-85
2022/10/26 07:26:54;;;;;;;18.10;8.65;;;;;;;;;;6284184;22;20010;-85
2022/10/26 07:29:30;;;;;;;20.45;9.38;;;;;;;;;;6255830;22;20007;-84
2022/10/26 07:48:10;;;;;;;19.27;9.65;;;;;;;;;;6319229;22;19991;-85
2022/10/26 08:18:27;;;;;;;16.58;7.97;;;;;;;;;;6363294;22;20009;-86
2022/10/26 08:40:43;;;;;;;14.40;8.02;;;;;;;;;;6248529;22;20026;-85
2022/10/26 08:43:17;;;;;;;18.60;7.97;;;;;;;;;;6247559;22;20428;-85
2022/10/26 08:45:52;;;;;;;16.30;8.30;;;;;;;;;;6303296;22;19983;-85
2022/10/26 08:48:23;;;;;;;15.60;8.85;;;;;;;;;;6251553;22;20022;-85
2022/10/26 08:50:54;;;;;;;16.90;9.05;;;;;;;;;;6249481;22;19992;-87
2022/10/26 08:53:37;;;;;;;17.42;8.60;;;;;;;;;;6274928;22;20022;-85
2022/10/26 08:56:12;;;;;;;13.63;8.02;;;;;;;;;;6275414;22;19991;-85
2022/10/26 08:58:39;;;;;;;11.00;7.60;;;;;;;;;;6249561;22;20015;-86
2022/10/26 09:01:05;;;;;;;12.32;7.53;;;;;;;;;;6224706;22;19999;-86
2022/10/26 09:14:18;;;;;;;14.38;8.35;;;;;;;;;;6350708;22;20018;-85
2022/10/26 09:16:53;;;;;;;14.77;7.38;;;;;;;;;;6311877;22;20014;-86
2022/10/26 09:19:24;;;;;;;21.33;10.98;;;;;;;;;;6338995;22;19987;-84
2022/10/26 09:22:10;;;;;;;17.30;9.20;;;;;;;;;;6339304;22;20066;-85
2022/10/26 09:24:58;;;;;;;13.95;7.68;;;;;;;;;;6316338;22;20072;-86
2022/10/26 09:27:27;;;;;;;17.20;8.10;;;;;;;;;;6313191;22;20022;-84
2022/10/26 09:29:53;;;;;;;14.10;7.68;;;;;;;;;;6311112;22;20468;-86
2022/10/26 09:38:02;;;;;;;12.10;7.07;;;;;;;;;;6350742;22;20034;-86
2022/10/26 09:40:54;;;;;;;20.20;7.85;;;;;;;;;;6338150;22;20097;-86
2022/10/26 09:43:45;;;;;;;14.75;7.75;;;;;;;;;;6337333;22;20014;-86
2022/10/26 09:46:17;;;;;;;14.38;7.63;;;;;;;;;;6312562;22;20011;-85
2022/10/26 09:54:38;;;;;;;13.45;6.85;;;;;;;;;;6316520;22;20018;-85
2022/10/26 09:57:04;;;;;;;13.02;8.10;;;;;;;;;;6256381;22;20007;-87
2022/10/26 09:59:32;;;;;;;14.60;7.57;;;;;;;;;;6307506;22;20018;-86
2022/10/26 10:01:59;;;;;;;12.82;7.30;;;;;;;;;;6281575;22;20145;-84
2022/10/26 10:04:25;;;;;;;12.10;6.70;;;;;;;;;;6256009;22;19999;-86
2022/10/26 10:06:51;;;;;;;13.60;6.70;;;;;;;;;;6279686;22;20053;-85
2022/10/26 10:09:19;;;;;;;11.10;6.32;;;;;;;;;;6281795;22;19984;-85
2022/10/26 10:11:54;;;;;;;10.65;6.35;;;;;;;;;;6307236;22;20018;-84
2022/10/26 10:16:56;;;;;;;10.82;6.45;;;;;;;;;;6348984;22;20026;-85
2022/10/26 10:21:58;;;;;;;10.40;5.63;;;;;;;;;;6325548;22;19940;-86
2022/10/26 10:24:31;;;;;;;12.20;6.93;;;;;;;;;;6340580;22;20039;-85
2022/10/26 10:27:02;;;;;;;12.95;6.65;;;;;;;;;;6314942;22;20097;-86
2022/10/26 10:29:28;;;;;;;11.05;6.30;;;;;;;;;;6289514;22;19983;-86
2022/10/26 10:31:59;;;;;;;9.10;6.03;;;;;;;;;;6340155;22;19995;-85
2022/10/26 10:34:29;;;;;;;10.10;5.90;;;;;;;;;;6314409;22;20014;-85
2022/10/26 10:36:56;;;;;;;11.48;5.80;;;;;;;;;;6339594;22;20085;-87
2022/10/26 10:52:51;;;;;;;11.77;5.28;;;;;;;;;;6342335;22;20029;-86
2022/10/26 10:55:20;;;;;;;12.05;5.15;;;;;;;;;;6313445;22;20014;-85
2022/10/26 11:56:33;;;;;;;12.10;5.57;;;;;;;;;;6332339;22;20005;-86
2022/10/26 11:58:59;;;;;;;7.68;5.50;;;;;;;;;;6256578;22;20030;-85
2022/10/26 12:01:24;;;;;;;;;;;;;;;;;;6256712;22;20008;-85
2022/10/26 12:03:51;;;;;;;8.52;4.88;;;;;;;;;;6280767;22;19906;-87
2022/10/26 12:06:18;;;;;;;9.13;5.25;;;;;;;;;;6256931;22;20003;-86
2022/10/26 12:08:53;;;;;;;10.48;5.82;;;;;;;;;;6256520;22;20546;-87
2022/10/26 12:27:31;;;;;;;13.23;6.30;;;;;;;;;;6313302;22;20014;-85
2022/10/26 12:30:26;;;;;;;11.68;6.25;;;;;;;;;;6227874;22;20000;-86
2022/10/26 12:33:00;;;;;;;17.77;6.60;;;;;;;;;;6281031;22;20035;-87
2022/10/26 12:59:48;;;;;;;13.73;8.10;;;;;;;;;;6287427;22;20015;-86
2022/10/26 13:03:04;;;;;;;14.43;8.00;;;;;;;;;;6314765;22;20026;-86
2022/10/26 13:05:55;;;;;;;14.73;8.02;;;;;;;;;;6308380;22;20018;-85
2022/10/26 13:08:51;;;;;;;14.10;7.90;;;;;;;;;;6335410;22;19991;-85
2022/10/26 13:11:51;;;;;;;19.85;7.80;;;;;;;;;;6308124;22;20022;-86
2022/10/26 13:14:32;;;;;;;14.57;7.35;;;;;;;;;;6307994;22;20030;-86
2022/10/26 13:17:02;;;;;;;14.00;7.22;;;;;;;;;;6214177;22;20024;-85
2022/10/26 13:44:07;;;;;;;14.80;9.05;;;;;;;;;;6334326;22;20029;-84
2022/10/26 13:46:39;;;;;;;19.65;10.27;;;;;;;;;;6312232;22;20010;-86
2022/10/26 13:49:12;;;;;;;19.38;9.10;;;;;;;;;;6311896;22;20066;-85
2022/10/26 13:51:45;;;;;;;17.90;10.00;;;;;;;;;;6287506;22;20008;-85
2022/10/26 13:54:27;;;;;;;19.65;10.05;;;;;;;;;;6312894;22;20015;-86
2022/10/26 13:57:32;;;;;;;14.75;8.98;;;;;;;;;;6313092;22;20015;-85
2022/10/26 14:00:00;;;;;;;18.02;8.95;;;;;;;;;;6210003;23;20021;-84
2022/10/26 14:02:26;;;;;;;;;;;;;;;;;;6136814;23;20007;-86
2022/10/26 14:04:52;;;;;;;24.10;10.07;;;;;;;;;;6260328;22;19891;-84
2022/10/26 14:07:21;;;;;;;17.40;8.77;;;;;;;;;;6311229;22;19979;-85
2022/10/26 14:09:51;;;;;;;18.17;9.70;;;;;;;;;;6312856;22;19994;-86
2022/10/26 14:12:18;;;;;;;18.45;10.02;;;;;;;;;;6312389;22;20015;-87
2022/10/26 14:14:45;;;;;;;18.55;9.25;;;;;;;;;;6336127;22;19998;-86
2022/10/26 14:22:28;;;;;;;21.50;10.00;;;;;;;;;;6332355;22;20026;-85
2022/10/26 14:27:47;;;;;;;18.73;9.27;;;;;;;;;;6275375;22;20026;-87
2022/10/26 14:47:39;;;;;;;13.88;8.60;;;;;;;;;;6281944;22;20020;-84
2022/10/26 14:50:19;;;;;;;14.05;8.15;;;;;;;;;;6277262;22;20034;-85
2022/10/26 14:52:54;;;;;;;14.10;7.90;;;;;;;;;;6253638;22;19999;-84
2022/10/26 15:16:56;;;;;;;14.20;8.23;;;;;;;;;;6360711;22;20013;-86
2022/10/26 15:19:22;;;;;;;10.70;6.60;;;;;;;;;;6314792;22;20044;-85
2022/10/26 15:21:50;;;;;;;11.07;6.97;;;;;;;;;;6287505;22;19994;-85
2022/10/26 15:24:37;;;;;;;12.98;6.60;;;;;;;;;;6338150;22;20094;-84
2022/10/26 15:27:03;;;;;;;16.30;6.63;;;;;;;;;;6286845;22;20015;-84
2022/10/26 15:29:33;;;;;;;13.65;6.25;;;;;;;;;;6313181;22;20002;-84
2022/10/26 15:31:59;;;;;;;9.80;6.25;;;;;;;;;;6287344;22;19995;-84
2022/10/26 15:45:22;;;;;;;12.57;6.47;;;;;;;;;;6343884;22;20010;-85
2022/10/26 15:47:53;;;;;;;16.25;6.57;;;;;;;;;;6340784;22;20010;-86
2022/10/26 15:50:21;;;;;;;14.05;6.10;;;;;;;;;;6340925;22;19995;-86
2022/10/26 15:52:55;;;;;;;13.65;5.70;;;;;;;;;;6315674;22;20017;-85
2022/10/26 15:57:58;;;;;;;12.63;5.63;;;;;;;;;;6336747;22;20027;-85
2022/10/26 16:06:05;;;;;;;12.90;5.90;;;;;;;;;;6334275;22;20034;-86
2022/10/26 16:08:32;;;;;;;12.25;6.35;;;;;;;;;;6281165;22;20022;-85
2022/10/26 16:11:25;;;;;;;11.23;6.28;;;;;;;;;;6271203;22;20026;-86
2022/10/26 16:13:56;;;;;;;16.73;8.45;;;;;;;;;;6311764;22;20018;-85
2022/10/26 16:16:29;;;;;;;14.07;7.13;;;;;;;;;;6341524;22;20006;-84
2022/10/26 16:18:56;;;;;;;13.68;5.63;;;;;;;;;;6288334;22;20045;-84
2022/10/26 16:21:24;;;;;;;11.35;6.50;;;;;;;;;;6287730;22;20002;-84
2022/10/26 16:34:42;;;;;;;15.25;8.73;;;;;;;;;;6361244;22;20054;-85
2022/10/26 16:37:33;;;;;;;15.43;8.65;;;;;;;;;;6341206;22;20027;-85
2022/10/26 16:39:59;;;;;;;17.00;9.43;;;;;;;;;;6288383;22;20014;-87
2022/10/26 16:42:25;;;;;;;;;;;;;;;;;;6287015;22;20109;-86
2022/10/26 16:45:00;;;;;;;19.58;10.10;;;;;;;;;;6338844;22;19907;-84
2022/10/26 16:47:26;;;;;;;15.85;9.23;;;;;;;;;;6313272;22;20018;-85
2022/10/26 16:49:53;;;;;;;16.30;9.18;;;;;;;;;;6312874;22;19982;-85
2022/10/26 16:52:43;;;;;;;17.65;9.55;;;;;;;;;;6339543;22;20007;-84
2022/10/26 16:55:14;;;;;;;16.20;9.65;;;;;;;;;;6367254;22;20002;-86
2022/10/26 16:57:41;;;;;;;15.65;8.85;;;;;;;;;;6313201;22;19991;-84
2022/10/26 17:00:51;;;;;;;18.65;9.32;;;;;;;;;;6344984;22;20041;-86
2022/10/26 17:20:32;;;;;;;15.38;9.00;;;;;;;;;;6345598;22;20045;-85
2022/10/26 17:22:59;;;;;;;14.90;9.15;;;;;;;;;;6287429;22;20023;-86
2022/10/26 17:25:26;;;;;;;15.57;9.93;;;;;;;;;;6312219;22;20042;-85
2022/10/26 17:27:55;;;;;;;15.68;9.40;;;;;;;;;;6277530;22;20003;-86
2022/10/26 17:43:56;;;;;;;20.17;9.10;;;;;;;;;;6333118;22;20034;-84
2022/10/26 17:46:37;;;;;;;16.38;9.48;;;;;;;;;;6307642;22;20027;-84
2022/10/26 17:49:11;;;;;;;15.43;9.80;;;;;;;;;;6335381;22;20014;-86
2022/10/26 18:05:04;;;;;;;16.30;10.55;;;;;;;;;;6364156;22;20065;-85
2022/10/26 18:55:20;;;;;;;12.48;8.70;;;;;;;;;;6361453;22;20014;-87
2022/10/26 19:20:43;;;;;;;14.10;7.80;;;;;;;;;;6366246;22;20078;-86
2022/10/26 21:53:03;;;;;;;14.77;8.90;;;;;;;;;;6302363;22;20011;-87
2022/10/26 21:55:29;;;;;;;12.80;8.10;;;;;;;;;;6276961;22;20015;-86
2022/10/26 21:57:54;;;;;;;12.65;8.35;;;;;;;;;;6252292;22;20011;-87
2022/10/26 22:00:20;;;;;;;11.30;8.55;;;;;;;;;;6276606;22;20055;-87
2022/10/26 22:02:48;;;;;;;13.35;8.40;;;;;;;;;;6277829;22;20015;-87
2022/10/26 22:05:36;;;;;;;13.57;7.63;;;;;;;;;;6252434;22;20008;-87
2022/10/26 22:08:02;;;;;;;12.18;8.30;;;;;;;;;;6303715;22;20015;-86
2022/10/26 22:10:30;;;;;;;11.57;8.63;;;;;;;;;;6278572;22;19999;-87
2022/10/26 22:26:21;;;;;;;14.32;8.80;;;;;;;;;;6366373;22;20063;-86
2022/10/26 22:28:49;;;;;;;12.45;8.68;;;;;;;;;;6340212;22;20052;-86
2022/10/26 22:31:15;;;;;;;12.40;8.13;;;;;;;;;;6314909;22;20003;-86
2022/10/26 22:33:41;;;;;;;11.30;8.20;;;;;;;;;;6313807;22;20011;-85
2022/10/26 22:36:09;;;;;;;11.38;8.00;;;;;;;;;;6314033;22;20002;-86
2022/10/26 22:38:37;;;;;;;12.32;7.70;;;;;;;;;;6340416;22;20059;-85
2022/10/26 22:41:03;;;;;;;11.45;7.85;;;;;;;;;;6313786;22;20006;-87
2022/10/26 22:43:30;;;;;;;10.82;8.05;;;;;;;;;;6312857;22;20019;-87
2022/10/26 22:46:04;;;;;;;12.30;7.63;;;;;;;;;;6316026;22;20018;-87
2022/10/26 22:48:31;;;;;;;11.32;8.10;;;;;;;;;;6313687;22;20007;-87
2022/10/26 22:50:56;;;;;;;10.02;7.72;;;;;;;;;;6288645;22;19995;-87
2022/10/26 22:53:22;;;;;;;11.57;7.82;;;;;;;;;;6314036;22;19998;-85
2022/10/26 22:55:50;;;;;;;11.50;7.80;;;;;;;;;;6341853;22;20078;-86
2022/10/26 22:58:17;;;;;;;9.88;7.10;;;;;;;;;;6289386;22;19999;-86
2022/10/26 23:01:08;;;;;;;11.63;8.65;;;;;;;;;;6344301;22;20018;-86
2022/10/26 23:03:35;;;;;;;11.75;7.97;;;;;;;;;;6340266;22;19995;-86
2022/10/26 23:06:02;;;;;;;12.00;7.97;;;;;;;;;;6314055;22;20037;-86
2022/10/26 23:08:28;;;;;;;13.45;8.68;;;;;;;;;;6314431;22;19983;-87
2022/10/26 23:11:00;;;;;;;12.05;8.80;;;;;;;;;;6314430;22;20017;-86
2022/10/26 23:13:26;;;;;;;13.57;9.07;;;;;;;;;;6313363;22;20013;-85
2022/10/26 23:16:03;;;;;;;12.75;8.80;;;;;;;;;;6288776;22;20006;-86
2022/10/26 23:18:48;;;;;;;14.32;9.18;;;;;;;;;;6319333;22;20006;-86
2022/10/26 23:21:15;;;;;;;19.25;9.90;;;;;;;;;;6313778;22;19999;-85
2022/10/26 23:23:41;;;;;;;12.93;8.90;;;;;;;;;;6288681;22;20006;-85
2022/10/26 23:26:10;;;;;;;17.05;9.85;;;;;;;;;;6283865;22;20048;-85
2022/10/26 23:29:01;;;;;;;14.57;9.55;;;;;;;;;;6314947;22;20030;-85
2022/10/26 23:31:29;;;;;;;13.65;9.13;;;;;;;;;;6283665;22;20011;-87
2022/10/26 23:33:57;;;;;;;15.98;9.57;;;;;;;;;;6309667;22;20022;-85
